Time;durP1;ratioP1;P1;durP2;ratioP2;P2;SDS_P1;SDS_P2;PMS_P1;PMS_P2;Temp;Humidity;BMP_temperature;BMP_pressure;BME280_temperature;BME280_humidity;BME280_pressure;Samples;Min_cycle;Max_cycle;Signal;HPM_P1;HPM_P2
2022/01/22 00:00:56;;;;;;;13.20;4.73;;;;;;;-6.70;66.29;95286.22;5001397;28;20049;-90
2022/01/22 00:03:22;;;;;;;20.00;6.63;;;;;;;-5.78;66.77;95390.59;5001092;28;20164;-90
2022/01/22 00:05:47;;;;;;;18.40;6.20;;;;;;;-7.02;66.50;95199.44;5001271;28;20095;-90
2022/01/22 00:08:13;;;;;;;14.52;5.90;;;;;;;-7.54;65.67;95111.47;5000602;28;20041;-90
2022/01/22 00:10:42;;;;;;;16.17;5.80;;;;;;;-6.77;65.88;95261.25;5000542;28;20030;-90
2022/01/22 00:14:23;;;;;;;18.10;5.67;;;;;;;-9.26;66.64;94843.56;5000499;28;20077;-89
2022/01/22 00:15:53;;;;;;;8.27;4.30;;;;;;;-5.86;66.47;95382.88;5017951;28;20038;-89
2022/01/22 00:18:19;;;;;;;12.97;5.67;;;;;;;-6.10;65.28;95360.56;5018757;28;20041;-89
2022/01/22 00:20:46;;;;;;;15.97;5.53;;;;;;;-9.94;65.98;94740.38;5000543;28;20096;-88
2022/01/22 00:23:14;;;;;;;13.57;5.87;;;;;;;-6.95;66.09;95178.97;4999531;28;20461;-89
2022/01/22 00:25:40;;;;;;;12.57;4.90;;;;;;;-6.77;66.43;95225.16;5018207;28;20120;-89
2022/01/22 00:28:05;;;;;;;10.60;5.03;;;;;;;-6.79;65.52;95209.84;4999586;28;20107;-90
2022/01/22 00:30:31;;;;;;;16.47;4.90;;;;;;;-7.39;65.74;95134.78;5000049;28;20037;-89
2022/01/22 00:32:57;;;;;;;13.57;5.23;;;;;;;-6.93;66.81;95191.66;5000253;28;20172;-90
2022/01/22 00:35:24;;;;;;;16.23;4.73;;;;;;;-7.98;65.62;95025.28;5016902;28;20096;-89
2022/01/22 00:37:52;;;;;;;12.98;5.18;;;;;;;-9.33;65.80;94798.94;4999918;28;20025;-90
2022/01/22 00:40:19;;;;;;;12.57;4.70;;;;;;;-5.92;65.90;95340.47;4999820;28;20038;-89
2022/01/22 00:42:46;;;;;;;22.00;5.33;;;;;;;-5.73;65.65;95361.69;5017648;28;20055;-90
2022/01/22 00:45:12;;;;;;;10.73;4.90;;;;;;;-5.96;65.29;95335.84;4999764;28;20050;-89
2022/01/22 00:47:38;;;;;;;16.67;6.40;;;;;;;-7.44;66.21;95124.97;4999673;28;20037;-90
2022/01/22 00:50:08;;;;;;;14.27;4.87;;;;;;;-4.91;65.88;95513.63;4999530;28;20077;-89
2022/01/22 00:52:34;;;;;;;14.70;5.10;;;;;;;-5.70;64.54;95382.00;5015946;28;20095;-89
2022/01/22 00:55:01;;;;;;;16.00;4.77;;;;;;;-5.89;65.37;95378.09;4999642;28;20041;-89
2022/01/22 00:57:26;;;;;;;9.20;3.87;;;;;;;-9.87;65.10;94708.78;4998592;28;20034;-90
2022/01/22 00:59:54;;;;;;;11.43;4.80;;;;;;;-8.21;65.84;94982.25;4995545;28;20137;-90
2022/01/22 01:02:19;;;;;;;12.37;4.50;;;;;;;-5.64;65.56;95402.00;4996613;28;20030;-90
2022/01/22 01:04:45;;;;;;;9.95;4.18;;;;;;;-6.54;65.47;95236.34;4996333;28;20465;-89
2022/01/22 01:07:10;;;;;;;12.98;4.80;;;;;;;-7.23;64.67;95124.41;4996185;28;20046;-89
2022/01/22 01:09:38;;;;;;;8.93;4.23;;;;;;;-7.18;65.45;95114.44;4980298;28;20044;-89
2022/01/22 01:12:07;;;;;;;13.50;4.57;;;;;;;-7.38;64.73;95110.63;4996118;28;20034;-88
2022/01/22 01:14:36;;;;;;;19.75;4.05;;;;;;;-5.54;64.38;95418.91;4996637;28;20061;-88
2022/01/22 01:33:33;;;;;;;10.13;4.07;;;;;;;-6.50;64.37;95226.53;4996854;28;20045;-89
2022/01/22 01:36:00;;;;;;;12.32;3.75;;;;;;;-4.76;64.09;95477.47;4995477;28;20038;-89
2022/01/22 01:38:25;;;;;;;9.77;3.73;;;;;;;-4.76;63.86;95480.88;4997262;28;20034;-88
2022/01/22 01:41:02;;;;;;;10.77;3.70;;;;;;;-5.71;63.46;95352.78;4995835;28;20045;-89
2022/01/22 01:43:34;;;;;;;8.10;3.43;;;;;;;-6.40;64.81;95224.53;4997415;28;20434;-88
2022/01/22 01:45:59;;;;;;;10.65;3.08;;;;;;;-6.49;63.44;95222.97;4997152;28;20034;-89
2022/01/22 01:48:29;;;;;;;9.47;3.83;;;;;;;-5.50;64.05;95384.03;4996295;28;20069;-89
2022/01/22 01:50:57;;;;;;;7.72;3.75;;;;;;;-4.97;62.97;95446.25;4996526;28;20096;-89
2022/01/22 01:57:26;;;;;;;11.85;3.72;;;;;;;-5.09;62.89;95388.94;4996883;28;20042;-88
2022/01/22 01:58:54;;;;;;;9.45;3.35;;;;;;;-7.30;63.31;95089.19;4998922;28;20037;-88
2022/01/22 02:01:20;;;;;;;10.30;3.72;;;;;;;-6.43;63.04;95196.50;4998000;28;20038;-89
2022/01/22 02:03:45;;;;;;;13.67;3.67;;;;;;;-9.80;63.51;94707.19;4997957;28;20632;-89
2022/01/22 02:06:11;;;;;;;10.32;3.53;;;;;;;-5.70;62.48;95359.56;5008276;28;20040;-89
2022/01/22 02:08:36;;;;;;;6.88;3.22;;;;;;;-7.12;62.28;95100.88;5001278;28;20528;-89
2022/01/22 02:11:04;;;;;;;10.88;3.15;;;;;;;-8.13;64.19;94929.97;4998561;28;20095;-89
2022/01/22 02:24:51;;;;;;;13.85;3.83;;;;;;;-5.45;64.05;95363.63;5016731;28;20405;-89
2022/01/22 02:27:17;;;;;;;10.63;3.65;;;;;;;-5.35;64.01;95368.59;4998467;28;20041;-88
2022/01/22 02:29:44;;;;;;;9.57;4.13;;;;;;;-6.65;64.04;95141.28;5017048;28;20034;-89
2022/01/22 02:35:06;;;;;;;8.17;3.67;;;;;;;-4.61;63.38;95447.28;5016214;28;20045;-90
2022/01/22 02:37:37;;;;;;;9.43;3.53;;;;;;;-7.45;63.05;94988.59;5000067;28;20029;-91
2022/01/22 02:40:16;;;;;;;8.85;3.03;;;;;;;-6.82;64.07;95126.88;5017248;28;20453;-91
2022/01/22 02:42:44;;;;;;;6.80;3.13;;;;;;;-4.92;63.00;95416.31;4999249;28;20064;-92
2022/01/22 02:45:11;;;;;;;7.60;3.40;;;;;;;-5.61;61.97;95335.28;4999368;28;20389;-91
2022/01/22 02:47:38;;;;;;;7.22;3.10;;;;;;;-6.16;62.38;95244.25;4998960;28;20505;-91
2022/01/22 02:50:05;;;;;;;15.13;3.28;;;;;;;-8.86;61.61;94829.88;5015374;28;20559;-91
2022/01/22 02:52:30;;;;;;;11.25;2.65;;;;;;;-5.36;61.89;95379.91;4999387;28;20042;-90
2022/01/22 02:54:56;;;;;;;11.70;4.10;;;;;;;-5.71;61.65;95341.63;4999777;28;20083;-91
2022/01/22 02:57:23;;;;;;;9.00;2.95;;;;;;;-5.71;62.02;95315.81;5023013;28;20086;-91
2022/01/22 02:59:50;;;;;;;11.80;3.27;;;;;;;-5.16;62.70;95399.16;5008021;28;20107;-91
2022/01/22 03:02:16;;;;;;;18.38;3.42;;;;;;;-6.43;62.28;95192.13;5017837;28;20040;-92
2022/01/22 03:04:42;;;;;;;9.18;3.42;;;;;;;-4.80;62.67;95437.38;4998176;28;20030;-92
2022/01/22 03:07:08;;;;;;;7.05;3.35;;;;;;;-5.73;62.38;95297.09;4999857;28;20128;-92
2022/01/22 03:09:40;;;;;;;7.07;2.85;;;;;;;-8.06;62.79;94959.22;5016861;28;20042;-92
2022/01/22 03:15:25;;;;;;;6.47;2.92;;;;;;;-5.84;63.15;95270.69;5016131;28;20088;-92
2022/01/22 03:23:06;;;;;;;11.52;3.30;;;;;;;-5.73;61.74;95287.59;5017250;28;20513;-91
2022/01/22 03:28:18;;;;;;;9.30;2.58;;;;;;;-5.59;61.89;95302.34;5016642;28;20516;-92
2022/01/22 03:30:44;;;;;;;7.30;3.13;;;;;;;-5.01;61.87;95401.00;5016509;28;20045;-90
2022/01/22 03:33:11;;;;;;;11.35;3.05;;;;;;;-6.13;61.41;95224.06;4998781;28;20030;-92
2022/01/22 03:35:43;;;;;;;10.68;3.15;;;;;;;-4.82;62.41;95385.84;4998712;28;20033;-91
2022/01/22 03:38:09;;;;;;;15.38;3.22;;;;;;;-5.36;61.65;95309.31;4984076;28;20026;-92
2022/01/22 03:40:35;;;;;;;11.10;3.40;;;;;;;-6.14;61.84;95201.00;4998934;28;20033;-91
2022/01/22 03:43:01;;;;;;;14.45;3.55;;;;;;;-7.02;61.37;95101.47;4998789;28;20045;-92
2022/01/22 03:45:26;;;;;;;6.35;2.92;;;;;;;-5.95;61.40;95275.47;5017047;28;20033;-91
2022/01/22 03:47:52;;;;;;;7.00;3.23;;;;;;;-6.53;62.27;95170.09;4999564;28;20069;-91
2022/01/22 03:50:19;;;;;;;11.40;3.33;;;;;;;-5.08;63.30;95386.19;4998760;28;20057;-91
2022/01/22 03:52:45;;;;;;;12.52;2.85;;;;;;;-7.22;62.08;95043.56;5016652;28;20037;-91
2022/01/22 03:55:32;;;;;;;6.08;2.58;;;;;;;-8.48;62.54;94881.53;3704778;28;10023412;-91
2022/01/22 03:57:57;;;;;;;14.03;3.37;;;;;;;-5.56;61.46;95321.84;3101829;28;10002119;-91
2022/01/22 04:00:23;;;;;;;5.47;2.80;;;;;;;-7.19;61.64;95066.44;4998693;28;20050;-91
2022/01/22 04:05:35;;;;;;;10.70;3.25;;;;;;;-6.06;61.02;95256.00;5017323;28;20440;-92
2022/01/22 04:08:12;;;;;;;7.97;3.08;;;;;;;-6.14;62.69;95274.09;4997504;28;20038;-92
2022/01/22 04:10:37;;;;;;;8.80;3.00;;;;;;;-6.45;61.93;95212.13;4997998;28;20084;-92
2022/01/22 04:13:07;;;;;;;10.00;3.17;;;;;;;-8.07;61.69;94949.06;4999006;28;20030;-91
2022/01/22 04:15:37;;;;;;;7.32;3.22;;;;;;;-6.32;60.98;95212.38;4998862;28;20068;-90
2022/01/22 04:26:35;;;;;;;8.60;2.70;;;;;;;-5.95;61.64;95247.84;5018947;28;20117;-91
2022/01/22 04:29:00;;;;;;;12.52;3.03;;;;;;;-6.33;62.12;95190.13;5019520;28;20489;-91
2022/01/22 04:31:26;;;;;;;5.72;2.70;;;;;;;-7.28;62.98;95036.53;5019388;28;20124;-91
2022/01/22 04:33:51;;;;;;;5.40;2.75;;;;;;;-5.91;62.22;95240.56;5001261;28;20119;-91
2022/01/22 04:36:17;;;;;;;10.17;3.20;;;;;;;-7.60;62.38;94975.63;5001382;28;20030;-91
2022/01/22 04:38:43;;;;;;;9.03;3.27;;;;;;;-7.11;62.72;95063.84;4985050;28;20034;-91
2022/01/22 04:41:09;;;;;;;10.85;3.80;;;;;;;-7.87;63.02;94964.00;5000911;28;20046;-91
2022/01/22 04:43:38;;;;;;;7.57;3.10;;;;;;;-6.22;62.44;95211.38;5000963;28;20119;-91
2022/01/22 04:56:28;;;;;;;10.65;3.67;;;;;;;-5.99;63.61;95228.50;5020272;28;20088;-91
2022/01/22 04:58:54;;;;;;;11.82;3.70;;;;;;;-5.72;64.80;95278.06;5001879;28;20030;-91
2022/01/22 05:01:19;;;;;;;9.35;3.38;;;;;;;-5.66;64.62;95272.19;5019958;28;20037;-91
2022/01/22 05:03:45;;;;;;;14.13;3.28;;;;;;;-6.82;63.41;95077.88;5001836;28;20061;-91
2022/01/22 05:06:10;;;;;;;10.80;3.50;;;;;;;-5.78;64.94;95258.06;5002592;28;20044;-91
2022/01/22 05:08:36;;;;;;;9.77;4.00;;;;;;;-7.01;65.65;95064.41;5001226;28;20037;-91
2022/01/22 05:11:01;;;;;;;11.30;3.37;;;;;;;-4.92;64.72;95371.53;5019624;28;20029;-91
2022/01/22 05:13:27;;;;;;;8.90;4.00;;;;;;;-6.67;65.22;95097.63;5001220;28;20088;-90
2022/01/22 05:15:52;;;;;;;15.70;4.50;;;;;;;-9.11;63.95;94774.34;5017858;28;20151;-90
2022/01/22 05:18:18;;;;;;;15.20;4.63;;;;;;;-5.76;65.20;95207.84;5001142;28;20033;-91
2022/01/22 05:20:52;;;;;;;16.92;4.68;;;;;;;-5.28;65.32;95266.09;5000785;28;20048;-91
2022/01/22 05:23:21;;;;;;;10.77;4.72;;;;;;;-5.21;65.18;95289.47;5001061;28;20148;-91
2022/01/22 05:25:56;;;;;;;19.03;5.27;;;;;;;-5.62;65.97;95198.53;5001058;28;20042;-91
2022/01/22 05:31:43;;;;;;;14.95;5.68;;;;;;;-5.81;66.13;95175.75;5019079;28;20121;-91
2022/01/22 05:39:10;;;;;;;18.50;5.30;;;;;;;-5.43;65.62;95267.84;5018242;28;20048;-91
2022/01/22 05:41:40;;;;;;;18.00;5.75;;;;;;;-4.88;65.40;95346.94;5007342;28;20461;-91
2022/01/22 05:44:06;;;;;;;11.97;5.43;;;;;;;-8.02;65.67;94854.19;5018983;28;20026;-91
2022/01/22 05:46:33;;;;;;;10.95;4.95;;;;;;;-10.16;64.46;94540.00;5035710;28;20049;-90
2022/01/22 05:48:58;;;;;;;21.13;5.07;;;;;;;-6.95;65.81;95031.22;5026576;28;20042;-90
2022/01/22 05:51:24;;;;;;;15.97;5.50;;;;;;;-7.16;65.83;94993.13;5001517;28;20527;-90
2022/01/22 06:01:52;;;;;;;15.43;5.73;;;;;;;-6.12;66.49;95201.66;5018320;28;20104;-92
2022/01/22 06:04:18;;;;;;;14.77;5.15;;;;;;;-5.95;66.89;95224.59;5001042;28;20037;-90
2022/01/22 06:06:43;;;;;;;14.63;5.13;;;;;;;-5.13;67.35;95339.34;5004130;28;20042;-90
2022/01/22 06:09:10;;;;;;;13.60;5.38;;;;;;;-6.54;68.06;95146.06;5001738;28;20042;-91
2022/01/22 06:11:52;;;;;;;13.35;5.50;;;;;;;-5.17;67.46;95338.06;5000192;28;20022;-91
2022/01/22 06:14:18;;;;;;;17.90;6.47;;;;;;;-6.41;68.58;95143.75;4999731;28;20473;-91
2022/01/22 06:16:43;;;;;;;16.97;6.87;;;;;;;-5.84;67.81;95241.47;4999716;28;20088;-91
2022/01/22 06:19:08;;;;;;;15.52;5.72;;;;;;;-6.06;68.61;95199.19;4999548;28;20038;-92
2022/01/22 06:21:34;;;;;;;17.17;6.35;;;;;;;-5.27;68.41;95298.75;5017025;28;20034;-91
2022/01/22 06:23:59;;;;;;;14.40;6.30;;;;;;;-6.03;68.55;95201.44;4999565;28;20054;-91
2022/01/22 06:26:25;;;;;;;16.90;5.38;;;;;;;-6.43;68.48;95117.31;4998458;28;20492;-91
2022/01/22 06:28:50;;;;;;;11.37;4.17;;;;;;;-5.15;67.25;95310.28;4998907;28;20033;-91
2022/01/22 06:31:16;;;;;;;7.60;3.95;;;;;;;-5.17;68.69;95332.09;5017705;28;20033;-91
2022/01/22 06:33:41;;;;;;;9.45;4.43;;;;;;;-5.03;66.89;95339.09;5001389;28;20038;-91
2022/01/22 06:36:07;;;;;;;17.60;4.70;;;;;;;-7.50;66.69;94940.19;4999874;28;20037;-89
2022/01/22 06:38:33;;;;;;;14.85;5.68;;;;;;;-7.57;66.41;94951.31;4997243;28;20032;-90
2022/01/22 06:43:44;;;;;;;11.70;4.70;;;;;;;-5.86;65.38;95222.75;5017444;28;20088;-91
2022/01/22 06:46:09;;;;;;;12.20;4.27;;;;;;;-5.88;65.61;95214.41;4998399;28;20029;-90
2022/01/22 06:48:35;;;;;;;14.73;5.13;;;;;;;-7.37;65.53;94949.13;5016576;28;20469;-91
2022/01/22 06:51:01;;;;;;;14.65;4.38;;;;;;;-5.11;65.67;95315.91;5015262;28;20034;-91
2022/01/22 06:53:27;;;;;;;11.05;4.57;;;;;;;-6.83;64.81;95046.13;4996576;28;20045;-90
2022/01/22 06:56:02;;;;;;;10.45;3.83;;;;;;;-9.56;63.67;94608.03;4995904;28;20398;-90
2022/01/22 06:58:28;;;;;;;13.23;4.93;;;;;;;-10.29;64.77;94520.97;4996937;28;20037;-90
2022/01/22 07:00:53;;;;;;;7.50;3.75;;;;;;;-7.03;63.90;95006.28;4996655;28;20041;-91
2022/01/22 07:03:19;;;;;;;17.15;4.28;;;;;;;-5.36;64.69;95249.84;4997938;28;20042;-91
2022/01/22 07:05:45;;;;;;;12.85;4.43;;;;;;;-7.48;63.50;94906.53;4997990;28;20802;-91
2022/01/22 07:08:10;;;;;;;7.88;3.95;;;;;;;-6.16;64.31;95116.00;4997533;28;20018;-91
2022/01/22 07:10:38;;;;;;;9.95;4.07;;;;;;;-5.70;63.60;95170.97;5015981;28;20121;-92
2022/01/22 07:13:04;;;;;;;12.80;4.32;;;;;;;-5.17;64.17;95270.84;4983156;28;20034;-92
2022/01/22 07:15:29;;;;;;;15.38;4.53;;;;;;;-6.04;63.63;95127.53;4999287;28;20075;-92
2022/01/22 07:17:56;;;;;;;13.55;4.13;;;;;;;-7.92;63.74;94837.53;5000641;28;20065;-92
2022/01/22 07:20:30;;;;;;;9.25;4.18;;;;;;;-4.71;63.99;95310.38;4999397;28;20025;-91
2022/01/22 07:23:14;;;;;;;17.50;5.07;;;;;;;-6.04;64.27;95108.66;5019027;28;20022;-93
2022/01/22 07:25:41;;;;;;;15.02;5.07;;;;;;;-6.86;64.93;94981.19;5000235;28;20026;-91
2022/01/22 07:28:06;;;;;;;13.63;4.65;;;;;;;-5.19;64.22;95234.03;5006046;28;20036;-91
2022/01/22 07:30:32;;;;;;;13.20;4.57;;;;;;;-5.21;64.77;95241.16;5025521;28;20563;-90
2022/01/22 07:32:58;;;;;;;15.83;4.40;;;;;;;-6.53;65.01;95021.25;5001514;28;20102;-92
2022/01/22 07:35:25;;;;;;;10.45;4.32;;;;;;;-7.58;65.93;94869.88;4999138;28;20038;-92
2022/01/22 07:37:51;;;;;;;12.43;3.28;;;;;;;-5.28;66.52;95242.84;5017960;28;20160;-91
2022/01/22 07:40:16;;;;;;;15.68;2.88;;;;;;;-6.97;67.00;94984.16;4999414;28;20038;-91
2022/01/22 07:42:42;;;;;;;10.82;3.70;;;;;;;-7.12;66.28;94905.00;4997616;28;20140;-91
2022/01/22 07:45:09;;;;;;;10.60;3.92;;;;;;;-5.72;66.45;95099.81;5015845;28;20065;-90
2022/01/22 07:47:35;;;;;;;11.77;3.80;;;;;;;-4.61;65.84;95266.13;4999950;28;20075;-91
2022/01/22 07:50:01;;;;;;;9.40;2.95;;;;;;;-6.37;65.12;94987.59;5016777;28;20037;-91
2022/01/22 07:52:27;;;;;;;11.20;4.10;;;;;;;-7.63;67.14;94805.22;5015457;28;20165;-92
2022/01/22 07:54:52;;;;;;;6.97;3.63;;;;;;;-4.78;67.31;95216.31;4998443;28;20534;-92
2022/01/22 07:57:18;;;;;;;11.82;4.22;;;;;;;-7.73;66.80;94778.88;4997329;28;20068;-91
2022/01/22 07:59:44;;;;;;;8.73;3.47;;;;;;;-5.94;65.32;95058.38;4994418;28;20050;-90
2022/01/22 08:02:10;;;;;;;7.68;3.95;;;;;;;-4.30;66.34;95295.25;4998648;28;20034;-91
2022/01/22 08:04:36;;;;;;;12.45;4.20;;;;;;;-5.56;66.61;95095.28;4999137;28;20046;-91
2022/01/22 08:07:04;;;;;;;11.40;4.10;;;;;;;-4.63;66.74;95220.69;4997393;28;20030;-90
2022/01/22 08:09:30;;;;;;;7.07;3.53;;;;;;;-4.43;64.90;95265.78;4998226;28;20049;-92
2022/01/22 08:11:56;;;;;;;7.55;3.60;;;;;;;-4.28;64.82;95285.50;4996807;28;20041;-89
2022/01/22 08:14:24;;;;;;;10.13;3.67;;;;;;;-4.65;64.94;95228.63;5001962;28;20034;-94
2022/01/22 08:16:49;;;;;;;8.25;4.15;;;;;;;-4.59;63.97;95229.72;5001703;28;20034;-93
2022/01/22 08:19:17;;;;;;;15.40;4.10;;;;;;;-7.68;62.89;94794.63;5002682;28;20113;-94
2022/01/22 08:21:44;;;;;;;10.65;4.68;;;;;;;-6.13;64.04;94999.50;5002311;28;20125;-92
2022/01/22 08:24:12;;;;;;;8.73;4.15;;;;;;;-4.99;64.03;95161.91;5002397;28;20034;-92
2022/01/22 08:26:45;;;;;;;12.30;4.28;;;;;;;-4.98;63.52;95178.25;4964718;28;22284;-91
2022/01/22 08:29:23;;;;;;;12.15;4.15;;;;;;;-4.79;64.03;95201.78;700698;28;10002407;-91
2022/01/22 08:32:02;;;;;;;6.45;3.80;;;;;;;-4.71;63.83;95196.53;4998456;28;20305;-90
2022/01/22 08:37:12;;;;;;;9.27;3.95;;;;;;;-4.36;64.89;95239.00;4999457;28;20480;-91
2022/01/22 08:39:39;;;;;;;9.23;3.83;;;;;;;-4.66;64.87;95175.31;4998643;28;20033;-92
2022/01/22 08:42:06;;;;;;;11.35;3.75;;;;;;;-4.96;64.10;95117.59;4998664;28;20043;-92
2022/01/22 08:44:31;;;;;;;12.90;4.57;;;;;;;-5.94;64.07;94954.28;4998316;28;20065;-91
2022/01/22 08:46:57;;;;;;;11.65;4.03;;;;;;;-5.29;63.07;95101.63;4997416;28;20038;-92
2022/01/22 08:49:22;;;;;;;7.03;3.20;;;;;;;-5.48;62.89;95040.13;4997912;28;20520;-92
2022/01/22 08:51:49;;;;;;;9.23;3.75;;;;;;;-5.73;63.39;95043.97;4999219;28;20046;-92
2022/01/22 08:54:15;;;;;;;7.13;3.53;;;;;;;-6.99;63.72;94803.91;4981194;28;20034;-92
2022/01/22 08:56:41;;;;;;;13.18;4.30;;;;;;;-4.90;64.34;95137.56;4997621;28;20136;-92
2022/01/22 08:59:09;;;;;;;9.02;4.50;;;;;;;-6.28;64.47;94919.47;5002851;28;20058;-91
2022/01/22 09:01:38;;;;;;;7.55;3.97;;;;;;;-6.33;62.90;94895.94;4986071;28;20513;-91
2022/01/22 09:04:03;;;;;;;13.98;3.80;;;;;;;-4.29;63.88;95205.41;5000787;28;20038;-92
2022/01/22 09:06:29;;;;;;;7.00;3.22;;;;;;;-5.20;63.50;95079.91;5000040;28;20040;-91
2022/01/22 09:09:05;;;;;;;7.82;3.83;;;;;;;-4.98;64.11;95124.72;5000493;28;20034;-91
2022/01/22 09:11:31;;;;;;;7.15;3.10;;;;;;;-4.54;62.95;95224.81;4985182;28;20045;-91
2022/01/22 09:13:56;;;;;;;6.93;2.88;;;;;;;-4.97;63.10;95104.84;4999643;28;20390;-91
2022/01/22 09:16:22;;;;;;;6.38;3.65;;;;;;;-4.39;64.02;95192.75;5000668;28;20429;-91
2022/01/22 09:18:48;;;;;;;6.18;3.42;;;;;;;-7.77;62.90;94662.56;5018157;28;20042;-93
2022/01/22 09:21:14;;;;;;;9.88;3.40;;;;;;;-4.32;62.91;95187.66;5000231;28;20029;-92
2022/01/22 09:23:39;;;;;;;9.02;4.05;;;;;;;-5.15;63.11;95100.84;5000746;28;20045;-92
2022/01/22 09:26:05;;;;;;;10.07;3.13;;;;;;;-4.62;62.57;95171.34;4999214;28;20049;-92
2022/01/22 09:28:32;;;;;;;10.02;3.53;;;;;;;-6.59;63.32;94836.22;5016440;28;20026;-92
2022/01/22 09:30:58;;;;;;;7.38;3.20;;;;;;;-4.60;62.97;95166.81;4999803;28;20045;-92
2022/01/22 09:33:23;;;;;;;9.95;3.50;;;;;;;-4.47;62.55;95168.75;5000082;28;20034;-90
2022/01/22 09:35:49;;;;;;;8.48;4.18;;;;;;;-4.38;61.90;95170.25;5000590;28;20038;-91
2022/01/22 09:38:15;;;;;;;12.88;5.18;;;;;;;-4.62;61.52;95121.38;5018273;28;20054;-91
2022/01/22 09:40:40;;;;;;;17.77;4.72;;;;;;;-4.79;62.21;95107.84;5000048;28;20082;-91
2022/01/22 09:43:06;;;;;;;10.98;4.75;;;;;;;-4.53;61.58;95107.34;5000065;28;20505;-92
2022/01/22 09:45:32;;;;;;;12.95;4.75;;;;;;;-3.95;61.88;95205.59;5000448;28;20041;-91
2022/01/22 09:48:00;;;;;;;8.75;4.15;;;;;;;-3.68;61.97;95217.03;5017231;28;20037;-91
2022/01/22 09:50:28;;;;;;;9.20;3.15;;;;;;;-5.34;59.35;94956.59;4998815;28;20037;-92
2022/01/22 09:52:54;;;;;;;8.95;3.72;;;;;;;-6.38;60.83;94778.75;4999691;28;20408;-92
2022/01/22 09:55:35;;;;;;;13.05;5.20;;;;;;;-4.63;59.51;95055.09;2488658;28;10022717;-92
2022/01/22 09:58:00;;;;;;;9.50;4.18;;;;;;;-4.59;59.72;95038.22;3276179;28;10001413;-93
2022/01/22 10:00:27;;;;;;;6.38;3.78;;;;;;;-4.57;60.31;95047.38;5000128;28;20054;-92
2022/01/22 10:02:55;;;;;;;9.40;3.65;;;;;;;-4.59;60.19;95035.63;5006402;28;20045;-91
2022/01/22 10:05:38;;;;;;;16.98;3.78;;;;;;;-4.00;60.33;95150.94;5016428;28;20040;-92
2022/01/22 10:08:27;;;;;;;13.82;4.32;;;;;;;-3.70;61.13;95184.50;5013958;28;20124;-91
2022/01/22 10:10:54;;;;;;;7.68;4.20;;;;;;;-4.25;61.24;95121.19;5006422;28;20061;-92
2022/01/22 10:13:50;;;;;;;8.45;3.60;;;;;;;-3.66;60.14;95185.75;4999630;28;20042;-91
2022/01/22 10:16:28;;;;;;;10.65;5.15;;;;;;;-4.07;61.38;95121.59;5016609;28;20042;-91
2022/01/22 10:19:17;;;;;;;9.02;4.10;;;;;;;-3.51;61.35;95209.84;5015794;28;20088;-91
2022/01/22 10:21:45;;;;;;;12.45;4.65;;;;;;;-3.98;61.30;95092.00;5000030;28;20397;-91
2022/01/22 10:24:28;;;;;;;13.40;5.47;;;;;;;-3.13;62.18;95180.00;5001760;28;20042;-90
2022/01/22 10:27:21;;;;;;;12.80;4.47;;;;;;;-2.49;60.25;95166.81;5005808;28;20400;-91
2022/01/22 10:29:53;;;;;;;8.57;3.25;;;;;;;-3.56;58.47;95046.25;5016652;28;20524;-92
2022/01/22 10:32:24;;;;;;;10.13;3.80;;;;;;;-4.85;57.88;94829.19;4999422;28;20030;-91
2022/01/22 10:35:01;;;;;;;;;;;;;;;-1.99;56.82;95173.41;4997742;28;20113;-92
2022/01/22 10:37:28;;;;;;;7.38;3.08;;;;;;;-2.82;56.33;95005.72;4997224;28;19921;-91
2022/01/22 10:40:32;;;;;;;10.30;4.20;;;;;;;-1.45;54.94;95167.25;4995756;28;20057;-92
2022/01/22 10:43:25;;;;;;;9.38;3.10;;;;;;;-0.98;52.68;95149.84;4998064;28;20068;-91
2022/01/22 10:49:01;;;;;;;8.13;3.58;;;;;;;-0.84;52.13;95138.41;5010855;28;20096;-91
2022/01/22 10:51:28;;;;;;;9.32;3.97;;;;;;;-1.93;52.24;94950.09;4997371;28;20072;-92
2022/01/22 10:54:00;;;;;;;7.90;3.80;;;;;;;-2.47;51.95;94832.44;5014939;28;20179;-92
2022/01/22 10:56:32;;;;;;;9.65;3.65;;;;;;;-2.27;51.04;94904.31;4997885;28;20193;-92
2022/01/22 10:59:00;;;;;;;11.07;3.90;;;;;;;-0.81;50.96;95138.78;4998209;28;20038;-92
2022/01/22 11:01:28;;;;;;;14.07;4.70;;;;;;;-3.57;50.38;94749.94;4999225;28;20042;-92
2022/01/22 11:04:10;;;;;;;12.65;3.83;;;;;;;-1.63;52.34;95154.06;4998119;28;20046;-92
2022/01/22 11:06:37;;;;;;;6.82;3.70;;;;;;;-4.46;52.03;94725.16;5016231;28;20033;-92
2022/01/22 11:09:05;;;;;;;9.07;2.95;;;;;;;-3.15;52.36;94937.38;4998765;28;20861;-92
2022/01/22 11:11:36;;;;;;;5.15;2.65;;;;;;;-1.88;51.99;95150.41;5016286;28;20038;-91
2022/01/22 11:14:02;;;;;;;7.10;3.50;;;;;;;-2.86;52.88;94970.78;5016858;28;20089;-90
2022/01/22 11:16:29;;;;;;;9.93;2.88;;;;;;;-2.48;51.52;95030.78;4998127;28;20026;-91
2022/01/22 11:18:57;;;;;;;12.40;3.20;;;;;;;-2.77;52.57;94953.22;4997874;28;20040;-91
2022/01/22 11:21:23;;;;;;;5.03;2.88;;;;;;;-4.23;52.51;94766.28;4998260;28;20429;-92
2022/01/22 11:23:49;;;;;;;15.30;4.30;;;;;;;-2.17;53.28;95058.81;5015850;28;20492;-92
2022/01/22 11:26:15;;;;;;;12.35;3.85;;;;;;;-2.09;53.13;95034.44;4998503;28;20041;-90
2022/01/22 11:28:43;;;;;;;14.77;4.72;;;;;;;-2.64;53.89;94983.59;4997571;28;20018;-92
2022/01/22 11:31:10;;;;;;;10.60;3.85;;;;;;;-3.51;51.95;94802.81;4998868;28;20042;-91
2022/01/22 11:33:40;;;;;;;8.32;3.65;;;;;;;-5.75;53.67;94496.56;4998288;28;20045;-91
2022/01/22 11:36:24;;;;;;;8.50;4.50;;;;;;;-4.15;55.06;94756.56;4998548;28;20069;-90
2022/01/22 11:38:58;;;;;;;7.30;3.38;;;;;;;-2.05;54.16;95105.78;5019929;28;20045;-92
2022/01/22 11:41:24;;;;;;;18.15;4.07;;;;;;;-2.26;57.28;95093.75;5001661;28;20046;-91
2022/01/22 11:44:15;;;;;;;13.40;3.90;;;;;;;-3.16;57.71;94949.53;5001174;28;20026;-91
2022/01/22 11:46:46;;;;;;;8.00;3.50;;;;;;;-3.99;55.92;94820.19;5001749;28;20057;-91
2022/01/22 11:49:17;;;;;;;6.63;3.60;;;;;;;-3.13;57.55;94977.66;5001515;28;20434;-92
2022/01/22 11:51:45;;;;;;;11.90;4.88;;;;;;;-5.14;57.48;94625.91;5001407;28;20026;-92
2022/01/22 11:54:13;;;;;;;12.10;3.53;;;;;;;-3.27;56.84;94928.53;4955079;28;20046;-90
2022/01/22 11:56:53;;;;;;;11.70;3.60;;;;;;;-2.25;58.66;95110.16;410957;28;10023001;-91
2022/01/22 11:59:24;;;;;;;11.40;3.75;;;;;;;-2.38;58.38;95111.72;4998300;28;20287;-90
2022/01/22 12:01:56;;;;;;;7.30;3.58;;;;;;;-2.38;59.33;95101.34;4997751;28;20394;-91
2022/01/22 12:04:26;;;;;;;;;;;;;;;-2.51;61.02;95100.47;4983242;28;20046;-91
2022/01/22 12:07:01;;;;;;;9.27;3.38;;;;;;;-2.64;61.33;95103.81;4997701;28;19921;-91
2022/01/22 12:09:31;;;;;;;9.32;3.95;;;;;;;-3.48;62.20;94981.28;4999030;28;20053;-91
2022/01/22 12:14:49;;;;;;;7.53;3.90;;;;;;;-2.66;61.94;95111.00;4999387;28;20061;-92
2022/01/22 12:17:28;;;;;;;10.15;4.72;;;;;;;-5.32;63.69;94692.78;4998039;28;20083;-91
2022/01/22 12:22:47;;;;;;;10.13;5.63;;;;;;;-5.42;65.73;94648.41;4998691;28;20034;-91
2022/01/22 12:25:16;;;;;;;12.23;4.90;;;;;;;-2.83;66.74;95086.38;4999430;28;20069;-91
2022/01/22 12:27:42;;;;;;;15.30;5.95;;;;;;;-2.85;66.67;95091.75;4997325;28;20030;-91
2022/01/22 12:30:09;;;;;;;13.77;5.70;;;;;;;-2.86;67.02;95091.94;4998276;28;20120;-91
2022/01/22 12:32:45;;;;;;;13.57;5.75;;;;;;;-2.96;67.97;95100.06;4997259;28;20026;-91
2022/01/22 12:35:31;;;;;;;16.33;6.10;;;;;;;-5.19;68.50;94760.91;4996866;28;20038;-91
2022/01/22 12:38:29;;;;;;;14.55;6.68;;;;;;;-3.87;69.50;94940.41;4997534;28;20030;-91
2022/01/22 12:41:13;;;;;;;9.50;4.53;;;;;;;-3.87;67.86;94945.59;4997687;28;20046;-90
2022/01/22 12:43:39;;;;;;;8.27;5.07;;;;;;;-2.86;67.27;95123.09;4996957;28;20034;-91
2022/01/22 12:46:04;;;;;;;13.00;6.25;;;;;;;-5.30;68.19;94685.66;4997373;28;20035;-91
2022/01/22 12:48:33;;;;;;;14.38;5.90;;;;;;;-3.48;67.95;94968.34;4998906;28;20034;-91
2022/01/22 12:51:08;;;;;;;15.05;5.88;;;;;;;-2.72;66.92;95086.63;4997925;28;20101;-90
2022/01/22 12:53:35;;;;;;;12.10;4.90;;;;;;;-3.04;66.18;95027.59;4998533;28;20068;-91
2022/01/22 12:58:33;;;;;;;14.15;5.03;;;;;;;-4.46;66.06;94736.31;4997999;28;20030;-91
2022/01/22 13:01:11;;;;;;;7.25;3.38;;;;;;;-7.17;63.25;94317.19;4997093;28;20057;-91
2022/01/22 13:03:44;;;;;;;9.43;3.75;;;;;;;-2.74;63.65;94994.34;4997152;28;20041;-92
2022/01/22 13:06:10;;;;;;;11.05;4.18;;;;;;;-2.78;62.53;94978.38;4997184;28;20034;-92
2022/01/22 13:08:36;;;;;;;7.10;3.40;;;;;;;-4.79;62.19;94650.75;4998477;28;20076;-90
2022/01/22 13:11:04;;;;;;;7.80;3.03;;;;;;;-3.41;62.62;94912.13;4996481;28;20068;-91
2022/01/22 13:13:31;;;;;;;8.15;4.20;;;;;;;-3.71;62.81;94844.22;4996491;28;20473;-90
2022/01/22 13:16:05;;;;;;;9.95;4.00;;;;;;;-2.43;62.89;95002.41;4997256;28;20117;-91